createdAt,value
2022-08-09T00:00:20.464Z,16.40
2022-08-09T00:02:49.797Z,16.30
2022-08-09T00:06:17.601Z,16.20
2022-08-09T00:08:32.327Z,16.10
2022-08-09T00:11:06.030Z,16.10
2022-08-09T00:13:54.032Z,16.20
2022-08-09T00:16:26.197Z,16.20
2022-08-09T00:19:10.158Z,16.20
2022-08-09T00:21:38.859Z,16.20
2022-08-09T00:24:22.574Z,16.20
2022-08-09T00:26:51.495Z,16.20
2022-08-09T00:29:39.117Z,16.20
2022-08-09T00:32:06.455Z,16.80
2022-08-09T00:34:33.659Z,15.90
2022-08-09T00:37:00.905Z,15.90
2022-08-09T00:40:09.302Z,16.10
2022-08-09T00:44:11.080Z,16.10
2022-08-09T00:45:03.744Z,16.00
2022-08-09T00:47:43.107Z,16.00
2022-08-09T00:50:14.258Z,15.70
2022-08-09T00:52:42.329Z,15.80
2022-08-09T00:55:16.703Z,15.80
2022-08-09T00:57:59.275Z,16.00
2022-08-09T01:00:27.477Z,15.30
2022-08-09T01:03:15.158Z,15.70
2022-08-09T01:05:54.314Z,16.10
2022-08-09T01:08:49.478Z,15.70
2022-08-09T01:11:26.858Z,15.80
2022-08-09T01:14:16.967Z,15.80
2022-08-09T01:16:49.228Z,15.70
2022-08-09T01:19:51.778Z,15.90
2022-08-09T01:22:54.914Z,15.90
2022-08-09T01:25:33.449Z,15.90
2022-08-09T01:28:11.319Z,15.90
2022-08-09T01:30:51.952Z,15.70
2022-08-09T01:33:23.939Z,15.80
2022-08-09T01:35:59.885Z,15.80
2022-08-09T01:38:30.141Z,15.70
2022-08-09T01:41:27.361Z,15.70
2022-08-09T01:43:57.989Z,15.80
2022-08-09T01:46:38.714Z,15.70
2022-08-09T01:49:12.574Z,15.90
2022-08-09T01:51:53.392Z,15.60
2022-08-09T01:54:24.125Z,15.50
2022-08-09T01:56:52.305Z,15.60
2022-08-09T01:59:21.343Z,15.60
2022-08-09T02:01:59.169Z,15.60
2022-08-09T02:04:28.446Z,15.60
2022-08-09T02:08:35.140Z,15.40
2022-08-09T02:10:29.914Z,15.30
2022-08-09T02:13:01.179Z,15.70
2022-08-09T02:15:36.212Z,15.30
2022-08-09T02:18:23.602Z,15.30
2022-08-09T02:20:56.028Z,15.40
2022-08-09T02:23:43.826Z,15.30
2022-08-09T02:26:25.323Z,15.30
2022-08-09T02:29:21.848Z,15.20
2022-08-09T02:31:51.207Z,15.50
2022-08-09T02:34:40.140Z,15.30
2022-08-09T02:37:14.256Z,15.30
2022-08-09T02:39:55.225Z,15.30
2022-08-09T02:42:33.846Z,15.10
2022-08-09T02:45:08.479Z,15.20
2022-08-09T02:47:57.963Z,15.10
2022-08-09T02:50:28.840Z,15.10
2022-08-09T02:53:01.345Z,15.10
2022-08-09T02:55:46.441Z,15.10
2022-08-09T02:58:32.780Z,15.20
2022-08-09T03:01:08.207Z,15.20
2022-08-09T03:04:17.231Z,15.30
2022-08-09T03:06:27.471Z,16.30
2022-08-09T03:08:55.858Z,15.40
2022-08-09T03:11:29.873Z,15.40
2022-08-09T03:14:13.525Z,15.50
2022-08-09T03:16:45.186Z,15.50
2022-08-09T03:19:57.618Z,15.50
2022-08-09T03:22:12.446Z,15.60
2022-08-09T03:25:05.785Z,15.60
2022-08-09T03:27:45.218Z,15.20
2022-08-09T03:30:14.343Z,15.40
2022-08-09T03:32:58.475Z,15.40
2022-08-09T03:35:44.494Z,15.40
2022-08-09T03:38:28.495Z,15.60
2022-08-09T03:40:58.075Z,15.10
2022-08-09T03:43:31.733Z,15.50
2022-08-09T03:46:04.727Z,15.50
2022-08-09T03:48:51.877Z,15.50
2022-08-09T03:51:56.366Z,15.40
2022-08-09T03:54:11.103Z,15.30
2022-08-09T03:56:41.296Z,15.20
2022-08-09T03:59:13.858Z,15.10
2022-08-09T04:01:49.967Z,15.00
2022-08-09T04:04:18.259Z,14.90
2022-08-09T04:06:49.172Z,14.80
2022-08-09T04:09:41.637Z,14.30
2022-08-09T04:12:11.959Z,14.20
2022-08-09T04:15:02.086Z,13.30
2022-08-09T04:17:39.410Z,14.80
2022-08-09T04:20:12.095Z,14.90
2022-08-09T04:22:41.309Z,15.00
2022-08-09T04:25:12.223Z,14.70
2022-08-09T04:27:46.640Z,15.10
2022-08-09T04:30:26.024Z,15.10
2022-08-09T04:32:54.173Z,15.10
2022-08-09T04:35:21.719Z,15.00
2022-08-09T04:37:49.754Z,15.10
2022-08-09T04:40:19.128Z,15.00
2022-08-09T04:42:55.843Z,15.10
2022-08-09T04:45:23.925Z,15.20
2022-08-09T04:47:58.857Z,15.20
2022-08-09T04:50:31.721Z,15.20
2022-08-09T04:53:02.343Z,15.10
2022-08-09T04:55:39.324Z,15.20
2022-08-09T04:58:09.444Z,14.60
2022-08-09T05:00:36.821Z,15.30
2022-08-09T05:03:30.611Z,15.30
2022-08-09T05:06:07.016Z,15.30
2022-08-09T05:08:35.568Z,15.20
2022-08-09T05:11:03.872Z,15.40
2022-08-09T05:13:34.045Z,15.60
2022-08-09T05:16:07.234Z,15.60
2022-08-09T05:18:37.737Z,15.70
2022-08-09T05:21:24.171Z,15.80
2022-08-09T05:23:57.900Z,15.90
2022-08-09T05:26:45.427Z,15.90
2022-08-09T05:29:21.863Z,16.00
2022-08-09T05:31:56.788Z,16.00
2022-08-09T05:34:30.901Z,16.10
2022-08-09T05:37:06.575Z,16.20
2022-08-09T05:39:43.460Z,16.20
2022-08-09T05:42:17.707Z,16.50
2022-08-09T05:44:56.133Z,16.30
2022-08-09T05:47:24.466Z,16.30
2022-08-09T05:50:24.511Z,16.30
2022-08-09T05:52:41.937Z,16.40
2022-08-09T05:55:20.777Z,16.50
2022-08-09T05:57:50.654Z,16.60
2022-08-09T06:00:23.414Z,16.60
2022-08-09T06:02:54.136Z,16.50
2022-08-09T06:05:30.889Z,16.70
2022-08-09T06:08:09.263Z,16.60
2022-08-09T06:10:38.517Z,16.90
2022-08-09T06:13:12.366Z,16.90
2022-08-09T06:15:46.793Z,16.90
2022-08-09T06:18:15.752Z,17.00
2022-08-09T06:20:54.928Z,17.00
2022-08-09T06:23:58.514Z,17.10
2022-08-09T06:26:20.786Z,17.10
2022-08-09T06:29:00.132Z,17.10
2022-08-09T06:31:31.227Z,17.30
2022-08-09T06:34:07.313Z,17.40
2022-08-09T06:36:34.439Z,17.50
2022-08-09T06:39:02.386Z,17.50
2022-08-09T06:42:07.503Z,17.50
2022-08-09T06:44:22.721Z,17.70
2022-08-09T06:46:55.295Z,17.90
2022-08-09T06:49:44.585Z,18.00
2022-08-09T06:52:10.699Z,18.10
2022-08-09T06:54:39.038Z,18.30
2022-08-09T06:57:08.534Z,18.30
2022-08-09T07:00:50.663Z,18.40
2022-08-09T07:02:22.528Z,18.50
2022-08-09T07:04:57.809Z,18.60
2022-08-09T07:08:00.807Z,18.70
2022-08-09T07:10:22.430Z,18.80
2022-08-09T07:12:57.638Z,19.00
2022-08-09T07:16:39.460Z,19.10
2022-08-09T07:18:14.252Z,19.30
2022-08-09T07:20:43.351Z,19.30
2022-08-09T07:23:19.082Z,20.30
2022-08-09T07:25:47.965Z,19.50
2022-08-09T07:28:26.187Z,19.60
2022-08-09T07:30:55.458Z,19.70
2022-08-09T07:33:22.226Z,19.70
2022-08-09T07:35:54.138Z,19.90
2022-08-09T07:38:23.507Z,20.10
2022-08-09T07:41:10.066Z,20.20
2022-08-09T07:43:41.294Z,20.40
2022-08-09T07:46:22.417Z,20.50
2022-08-09T07:48:59.459Z,20.50
2022-08-09T07:52:06.332Z,20.60
2022-08-09T07:54:19.237Z,20.80
2022-08-09T07:56:56.944Z,20.90
2022-08-09T07:59:34.399Z,20.90
2022-08-09T08:02:19.510Z,20.90
2022-08-09T08:04:48.732Z,21.00
2022-08-09T08:08:43.294Z,21.20
2022-08-09T08:10:08.855Z,21.20
2022-08-09T08:12:42.873Z,21.40
2022-08-09T08:15:13.922Z,21.50
2022-08-09T08:17:53.032Z,21.50
2022-08-09T08:20:29.536Z,21.70
2022-08-09T08:23:16.028Z,21.70
2022-08-09T08:25:53.924Z,21.80
2022-08-09T08:28:34.958Z,21.90
2022-08-09T08:31:14.452Z,21.90
2022-08-09T08:33:52.739Z,22.00
2022-08-09T08:36:22.475Z,22.10
2022-08-09T08:38:56.386Z,22.10
2022-08-09T08:41:24.981Z,22.30
2022-08-09T08:44:09.593Z,22.40
2022-08-09T08:46:59.689Z,22.40
2022-08-09T08:49:38.580Z,22.40
2022-08-09T08:55:06.307Z,22.60
2022-08-09T08:57:34.728Z,22.60
2022-08-09T09:00:12.857Z,22.60
2022-08-09T09:02:52.695Z,22.70
2022-08-09T09:05:33.359Z,22.80
2022-08-09T09:08:30.686Z,22.80
2022-08-09T09:11:03.418Z,22.90
2022-08-09T09:13:55.641Z,22.90
2022-08-09T09:16:35.065Z,22.90
2022-08-09T09:22:07.703Z,23.00
2022-08-09T09:26:00.531Z,22.90
2022-08-09T09:28:06.150Z,23.00
2022-08-09T09:30:47.356Z,23.00
2022-08-09T09:33:16.258Z,23.20
2022-08-09T09:36:04.024Z,23.30
2022-08-09T09:38:58.063Z,23.40
2022-08-09T09:41:32.527Z,23.30
2022-08-09T09:44:12.680Z,23.30
2022-08-09T09:46:50.872Z,23.40
2022-08-09T09:49:23.621Z,23.40
2022-08-09T09:52:35.730Z,23.40
2022-08-09T09:55:23.927Z,23.50
2022-08-09T09:58:02.195Z,23.60
2022-08-09T10:00:32.142Z,23.70
2022-08-09T10:03:00.749Z,23.70
2022-08-09T10:06:03.936Z,23.70
2022-08-09T10:08:32.063Z,23.80
2022-08-09T10:10:58.979Z,23.80
2022-08-09T10:13:45.099Z,23.80
2022-08-09T10:16:56.882Z,23.90
2022-08-09T10:19:06.144Z,23.80
2022-08-09T10:21:33.754Z,23.90
2022-08-09T10:24:04.512Z,23.90
2022-08-09T10:26:31.379Z,24.10
2022-08-09T10:29:23.296Z,24.20
2022-08-09T10:34:35.788Z,24.10
2022-08-09T10:37:03.138Z,24.10
2022-08-09T10:39:30.454Z,24.20
2022-08-09T10:42:08.330Z,24.20
2022-08-09T10:44:39.944Z,24.10
2022-08-09T10:48:29.346Z,24.10
2022-08-09T10:51:06.635Z,24.10
2022-08-09T10:54:12.517Z,24.10
2022-08-09T10:56:43.417Z,24.20
2022-08-09T10:59:23.427Z,24.20
2022-08-09T11:03:10.881Z,24.40
2022-08-09T11:05:24.542Z,24.40
2022-08-09T11:07:59.011Z,24.40
2022-08-09T11:10:47.279Z,24.40
2022-08-09T11:13:49.916Z,24.40
2022-08-09T11:16:33.640Z,24.40
2022-08-09T11:19:07.823Z,24.40
2022-08-09T11:22:10.827Z,24.60
2022-08-09T11:25:08.022Z,24.60
2022-08-09T11:28:05.017Z,24.70
2022-08-09T11:30:32.778Z,24.70
2022-08-09T11:33:19.596Z,24.80
2022-08-09T11:36:00.402Z,24.80
2022-08-09T11:38:34.186Z,24.80
2022-08-09T11:41:12.846Z,24.80
2022-08-09T11:43:48.801Z,24.90
2022-08-09T11:46:18.433Z,24.90
2022-08-09T11:48:57.770Z,24.90
2022-08-09T11:53:20.944Z,24.80
2022-08-09T11:54:28.202Z,24.90
2022-08-09T11:57:56.398Z,25.00
2022-08-09T12:00:29.920Z,24.90
2022-08-09T12:02:59.856Z,24.90
2022-08-09T12:05:42.361Z,24.90
2022-08-09T12:08:19.765Z,24.90
2022-08-09T12:10:53.661Z,24.90
2022-08-09T12:14:09.408Z,25.00
2022-08-09T12:16:38.425Z,25.00
2022-08-09T12:19:09.533Z,25.00
2022-08-09T12:21:48.639Z,25.00
2022-08-09T12:24:25.880Z,25.10
2022-08-09T12:29:13.079Z,25.20
2022-08-09T12:30:01.687Z,25.30
2022-08-09T12:32:44.271Z,25.20
2022-08-09T12:35:13.443Z,25.20
2022-08-09T12:37:51.769Z,25.10
2022-08-09T12:40:24.424Z,25.10
2022-08-09T12:42:52.101Z,25.20
2022-08-09T12:45:34.592Z,25.30
2022-08-09T12:48:19.944Z,25.40
2022-08-09T12:50:52.038Z,25.30
2022-08-09T12:53:44.645Z,25.30
2022-08-09T12:56:44.089Z,25.40
2022-08-09T12:59:10.219Z,25.50
2022-08-09T13:01:38.932Z,25.60
2022-08-09T13:04:36.279Z,25.60
2022-08-09T13:07:14.076Z,25.70
2022-08-09T13:09:52.714Z,25.60
2022-08-09T13:12:23.042Z,25.50
2022-08-09T13:14:54.172Z,25.60
2022-08-09T13:17:43.784Z,25.70
2022-08-09T13:20:20.215Z,26.00
2022-08-09T13:23:04.750Z,25.90
2022-08-09T13:25:52.693Z,25.70
2022-08-09T13:28:34.117Z,25.80
2022-08-09T13:32:18.120Z,25.80
2022-08-09T13:33:55.035Z,26.00
2022-08-09T13:36:38.220Z,26.20
2022-08-09T13:41:49.628Z,26.40
2022-08-09T13:42:01.512Z,26.40
2022-08-09T13:44:29.215Z,26.10
2022-08-09T13:47:19.381Z,26.10
2022-08-09T13:49:56.349Z,26.20
2022-08-09T13:52:24.564Z,26.30
2022-08-09T13:55:00.249Z,26.70
2022-08-09T13:57:37.518Z,26.70
2022-08-09T14:00:13.390Z,27.30
2022-08-09T14:03:03.155Z,27.70
2022-08-09T14:05:56.667Z,28.40
2022-08-09T14:08:17.663Z,28.90
2022-08-09T14:10:50.271Z,29.90
2022-08-09T14:14:15.896Z,30.60
2022-08-09T14:16:14.018Z,31.10
2022-08-09T14:18:45.481Z,32.00
2022-08-09T14:21:20.527Z,32.30
2022-08-09T14:23:53.806Z,32.70
2022-08-09T14:26:25.442Z,33.00
2022-08-09T14:28:58.886Z,32.80
2022-08-09T14:31:35.926Z,32.10
2022-08-09T14:34:13.349Z,31.60
2022-08-09T14:36:44.569Z,31.30
2022-08-09T14:39:11.816Z,32.00
2022-08-09T14:41:40.034Z,31.90
2022-08-09T14:44:11.275Z,32.40
2022-08-09T14:47:03.034Z,32.70
2022-08-09T14:49:26.292Z,32.90
2022-08-09T14:51:58.320Z,33.00
2022-08-09T14:54:27.716Z,33.00
2022-08-09T14:56:58.630Z,33.20
2022-08-09T14:59:28.474Z,33.60
2022-08-09T15:01:55.859Z,33.50
2022-08-09T15:04:23.417Z,33.90
2022-08-09T15:06:51.328Z,34.50
2022-08-09T15:09:52.003Z,34.20
2022-08-09T15:12:08.141Z,33.70
2022-08-09T15:14:38.293Z,33.40
2022-08-09T15:17:09.263Z,33.80
2022-08-09T15:19:37.129Z,33.40
2022-08-09T15:22:30.528Z,33.40
2022-08-09T15:25:00.055Z,33.80
2022-08-09T15:27:47.412Z,33.50
2022-08-09T15:30:57.718Z,33.30
2022-08-09T15:33:07.317Z,33.40
2022-08-09T15:35:44.235Z,33.80
2022-08-09T15:38:12.261Z,33.60
2022-08-09T15:40:43.430Z,33.10
2022-08-09T15:43:13.163Z,33.00
2022-08-09T15:45:51.965Z,32.50
2022-08-09T15:48:30.642Z,32.00
2022-08-09T15:51:00.557Z,32.20
2022-08-09T15:54:04.555Z,32.00
2022-08-09T15:56:29.491Z,31.80
2022-08-09T15:58:58.917Z,31.50
2022-08-09T16:01:26.060Z,31.20
2022-08-09T16:03:52.799Z,30.80
2022-08-09T16:06:35.045Z,30.30
2022-08-09T16:09:05.682Z,30.10
2022-08-09T16:11:33.569Z,29.90
2022-08-09T16:14:06.806Z,29.50
2022-08-09T16:16:37.315Z,28.90
2022-08-09T16:19:10.195Z,28.80
2022-08-09T16:21:41.430Z,28.60
2022-08-09T16:24:19.987Z,28.70
2022-08-09T16:26:57.145Z,28.80
2022-08-09T16:29:37.084Z,28.60
2022-08-09T16:32:33.411Z,28.50
2022-08-09T16:34:58.764Z,28.20
2022-08-09T16:37:55.019Z,28.30
2022-08-09T16:40:20.433Z,28.10
2022-08-09T16:42:56.783Z,27.80
2022-08-09T16:45:23.588Z,27.70
2022-08-09T16:48:50.550Z,27.60
2022-08-09T16:50:42.360Z,27.60
2022-08-09T16:53:32.322Z,27.30
2022-08-09T16:56:06.042Z,27.30
2022-08-09T16:58:37.251Z,27.00
2022-08-09T17:01:07.574Z,26.70
2022-08-09T17:03:34.942Z,26.80
2022-08-09T17:06:06.558Z,26.70
2022-08-09T17:08:46.675Z,26.70
2022-08-09T17:11:24.519Z,26.70
2022-08-09T17:14:01.035Z,26.60
2022-08-09T17:16:28.875Z,26.70
2022-08-09T17:18:55.651Z,26.50
2022-08-09T17:21:25.156Z,26.40
2022-08-09T17:24:21.167Z,26.20
2022-08-09T17:26:42.635Z,26.10
2022-08-09T17:29:20.372Z,25.90
2022-08-09T17:31:49.182Z,25.70
2022-08-09T17:35:00.416Z,25.60
2022-08-09T17:37:04.037Z,25.60
2022-08-09T17:39:52.181Z,25.30
2022-08-09T17:42:40.828Z,25.20
2022-08-09T17:45:06.459Z,25.20
2022-08-09T17:47:49.942Z,25.10
2022-08-09T17:50:36.453Z,25.00
2022-08-09T17:53:19.301Z,24.90
2022-08-09T17:55:51.081Z,24.90
2022-08-09T17:58:22.212Z,24.80
2022-08-09T18:00:55.047Z,24.60
2022-08-09T18:03:24.627Z,24.60
2022-08-09T18:05:53.281Z,24.40
2022-08-09T18:08:22.280Z,24.40
2022-08-09T18:11:02.250Z,24.30
2022-08-09T18:13:39.686Z,24.20
2022-08-09T18:16:28.962Z,24.10
2022-08-09T18:18:57.036Z,24.10
2022-08-09T18:21:24.503Z,24.00
2022-08-09T18:24:09.514Z,24.00
2022-08-09T18:26:45.824Z,23.90
2022-08-09T18:30:37.956Z,23.90
2022-08-09T18:32:00.920Z,23.60
2022-08-09T18:34:31.607Z,23.60
2022-08-09T18:36:58.661Z,23.60
2022-08-09T18:39:25.722Z,23.60
2022-08-09T18:42:08.755Z,23.40
2022-08-09T18:44:35.943Z,23.40
2022-08-09T18:47:07.599Z,23.20
2022-08-09T18:49:43.527Z,23.20
2022-08-09T18:52:15.773Z,23.10
2022-08-09T18:54:52.282Z,23.00
2022-08-09T18:57:19.972Z,23.00
2022-08-09T18:59:55.491Z,22.90
2022-08-09T19:02:31.830Z,22.80
2022-08-09T19:05:19.648Z,22.80
2022-08-09T19:08:04.174Z,22.60
2022-08-09T19:10:39.094Z,22.50
2022-08-09T19:13:20.490Z,22.40
2022-08-09T19:15:58.962Z,22.40
2022-08-09T19:18:35.074Z,22.30
2022-08-09T19:21:10.664Z,22.30
2022-08-09T19:24:35.828Z,22.30
2022-08-09T19:26:31.608Z,22.10
2022-08-09T19:29:15.175Z,21.90
2022-08-09T19:31:45.346Z,21.80
2022-08-09T19:34:21.436Z,21.90
2022-08-09T19:36:51.398Z,21.90
2022-08-09T19:39:20.988Z,21.80
2022-08-09T19:41:57.056Z,21.80
2022-08-09T19:44:24.115Z,21.70
2022-08-09T19:46:53.327Z,21.60
2022-08-09T19:50:10.200Z,21.50
2022-08-09T19:52:08.572Z,21.30
2022-08-09T19:54:35.639Z,21.20
2022-08-09T19:57:02.784Z,21.10
2022-08-09T19:59:57.755Z,21.00
2022-08-09T20:04:18.019Z,21.00
2022-08-09T20:05:11.557Z,20.60
2022-08-09T20:07:58.838Z,21.00
2022-08-09T20:10:34.851Z,20.90
2022-08-09T20:13:06.365Z,20.90
2022-08-09T20:16:34.844Z,20.90
2022-08-09T20:18:22.460Z,20.80
2022-08-09T20:20:51.233Z,20.80
2022-08-09T20:23:21.046Z,19.90
2022-08-09T20:25:53.596Z,20.70
2022-08-09T20:28:27.939Z,20.70
2022-08-09T20:31:04.930Z,20.70
2022-08-09T20:33:39.272Z,20.90
2022-08-09T20:36:08.818Z,20.50
2022-08-09T20:39:02.916Z,20.60
2022-08-09T20:41:35.060Z,20.80
2022-08-09T20:44:09.815Z,20.50
2022-08-09T20:46:43.063Z,20.40
2022-08-09T20:49:13.051Z,20.30
2022-08-09T20:51:41.819Z,20.20
2022-08-09T20:54:12.740Z,20.20
2022-08-09T20:56:46.687Z,20.20
2022-08-09T20:59:16.882Z,20.10
2022-08-09T21:01:51.230Z,20.10
2022-08-09T21:05:53.562Z,20.20
2022-08-09T21:07:11.450Z,20.10
2022-08-09T21:09:45.701Z,20.10
2022-08-09T21:12:23.691Z,20.10
2022-08-09T21:15:01.383Z,20.00
2022-08-09T21:18:22.454Z,19.90
2022-08-09T21:20:23.008Z,19.70
2022-08-09T21:22:54.615Z,19.80
2022-08-09T21:25:44.234Z,19.80
2022-08-09T21:28:33.740Z,19.80
2022-08-09T21:31:19.780Z,19.70
2022-08-09T21:33:52.838Z,19.60
2022-08-09T21:36:28.867Z,19.50
2022-08-09T21:38:57.943Z,19.00
2022-08-09T21:42:00.281Z,19.50
2022-08-09T21:44:15.372Z,19.30
2022-08-09T21:47:00.345Z,19.30
2022-08-09T21:49:28.565Z,19.20
2022-08-09T21:51:55.364Z,19.20
2022-08-09T21:54:24.286Z,18.10
2022-08-09T21:56:54.385Z,19.00
2022-08-09T21:59:23.333Z,19.00
2022-08-09T22:02:01.178Z,18.90
2022-08-09T22:04:55.054Z,19.20
2022-08-09T22:07:35.393Z,18.60
2022-08-09T22:10:06.146Z,18.30
2022-08-09T22:12:33.380Z,18.90
2022-08-09T22:15:01.042Z,18.50
2022-08-09T22:17:27.977Z,18.40
2022-08-09T22:20:00.700Z,18.10
2022-08-09T22:22:31.302Z,18.30
2022-08-09T22:26:07.033Z,18.30
2022-08-09T22:27:48.677Z,18.40
2022-08-09T22:30:15.725Z,18.20
2022-08-09T22:32:53.389Z,18.00
2022-08-09T22:36:01.573Z,17.80
2022-08-09T22:38:07.982Z,18.10
2022-08-09T22:40:35.728Z,18.90
2022-08-09T22:43:16.169Z,17.90
2022-08-09T22:48:18.481Z,17.70
2022-08-09T22:48:36.922Z,17.70
2022-08-09T22:51:10.674Z,17.50
2022-08-09T22:53:58.043Z,17.40
2022-08-09T22:56:31.354Z,17.30
2022-08-09T22:59:01.263Z,17.20
2022-08-09T23:01:41.423Z,17.20
2022-08-09T23:04:08.241Z,17.10
2022-08-09T23:06:54.672Z,18.40
2022-08-09T23:09:21.470Z,17.50
2022-08-09T23:11:48.297Z,17.20
2022-08-09T23:14:17.500Z,17.20
2022-08-09T23:16:44.768Z,17.40
2022-08-09T23:19:11.559Z,17.50
2022-08-09T23:21:39.440Z,17.80
2022-08-09T23:24:07.909Z,18.30
2022-08-09T23:26:36.366Z,17.70
2022-08-09T23:29:08.208Z,17.80
2022-08-09T23:31:35.110Z,17.80
2022-08-09T23:34:02.629Z,18.00
2022-08-09T23:36:31.211Z,17.80
2022-08-09T23:38:58.088Z,17.80
2022-08-09T23:41:28.968Z,17.80
2022-08-09T23:44:01.828Z,17.60
2022-08-09T23:46:30.110Z,17.60
2022-08-09T23:48:57.853Z,17.40
2022-08-09T23:51:30.892Z,17.40
2022-08-09T23:54:02.331Z,17.50
2022-08-09T23:56:53.616Z,17.50
2022-08-09T23:59:18.620Z,17.60
